Time;durP1;ratioP1;P1;durP2;ratioP2;P2;SDS_P1;SDS_P2;PMS_P1;PMS_P2;Temp;Humidity;BMP_temperature;BMP_pressure;BME280_temperature;BME280_humidity;BME280_pressure;Samples;Min_cycle;Max_cycle;Signal;HPM_P1;HPM_P2
2022/07/13 00:01:16;;;;;;;2.22;1.40;;;18.50;65.40;;;17.57;73.75;96758.88;4961168;28;20134;-67
2022/07/13 00:03:42;;;;;;;3.70;1.58;;;18.40;65.60;;;17.54;73.22;96756.66;4963776;28;20146;-67
2022/07/13 00:06:08;;;;;;;2.17;1.45;;;18.40;65.70;;;17.52;73.31;96753.41;4961104;28;20066;-67
2022/07/13 00:08:33;;;;;;;3.28;1.55;;;18.30;65.80;;;17.49;74.14;96751.19;4962143;28;20050;-67
2022/07/13 00:10:59;;;;;;;3.53;1.40;;;18.30;66.10;;;17.45;74.07;96747.31;4961075;28;20039;-67
2022/07/13 00:13:25;;;;;;;2.38;1.35;;;18.20;66.20;;;17.44;74.09;96753.69;4964080;28;20069;-67
2022/07/13 00:15:51;;;;;;;2.75;1.30;;;18.20;66.30;;;17.38;74.48;96749.19;4962675;28;20109;-67
2022/07/13 00:18:17;;;;;;;3.58;1.45;;;18.10;66.40;;;17.34;74.53;96750.66;4963835;28;20066;-67
2022/07/13 00:20:45;;;;;;;5.07;1.40;;;18.10;66.40;;;17.30;74.78;96741.50;4965237;28;20027;-67
2022/07/13 00:23:11;;;;;;;3.88;1.50;;;18.10;66.70;;;17.24;74.78;96737.03;4958652;28;20043;-67
2022/07/13 00:25:36;;;;;;;3.53;1.50;;;18.00;67.00;;;17.20;75.21;96741.13;4964845;28;20561;-67
2022/07/13 00:28:02;;;;;;;3.00;1.45;;;18.00;67.10;;;17.17;75.46;96737.06;4967345;28;20065;-66
2022/07/13 00:30:28;;;;;;;2.85;1.73;;;17.90;67.10;;;17.12;75.31;96737.72;4966033;28;20051;-67
2022/07/13 00:32:53;;;;;;;1.58;1.10;;;17.80;66.90;;;17.09;75.07;96732.84;4963677;28;20076;-66
2022/07/13 00:35:19;;;;;;;3.08;1.58;;;17.80;67.00;;;17.04;75.32;96732.66;4967380;28;20046;-66
2022/07/13 00:37:45;;;;;;;1.83;1.20;;;17.80;67.30;;;17.02;75.56;96745.34;4966905;28;20077;-68
2022/07/13 00:40:11;;;;;;;2.00;1.40;;;17.80;67.40;;;16.96;75.61;96746.19;4962974;28;20094;-69
2022/07/13 00:42:38;;;;;;;2.92;1.70;;;17.70;67.30;;;16.93;74.98;96740.50;4967572;28;20410;-69
2022/07/13 00:45:04;;;;;;;3.30;1.48;;;17.70;67.30;;;16.89;75.91;96744.59;4963579;28;20049;-68
2022/07/13 00:47:34;;;;;;;5.32;1.63;;;17.60;67.20;;;16.83;75.73;96740.97;4964532;28;20043;-68
2022/07/13 00:50:00;;;;;;;3.33;1.50;;;17.60;67.40;;;16.79;76.21;96745.88;4963520;28;20035;-68
2022/07/13 00:52:27;;;;;;;4.55;1.60;;;17.50;67.50;;;16.72;76.73;96745.09;4964170;28;20459;-68
2022/07/13 00:54:52;;;;;;;3.92;1.70;;;17.40;67.70;;;16.67;76.29;96741.44;4965407;28;20051;-68
2022/07/13 00:57:18;;;;;;;3.83;1.90;;;17.50;67.90;;;16.65;76.41;96746.13;4963137;28;20256;-68
2022/07/13 00:59:44;;;;;;;3.35;1.83;;;17.40;68.10;;;16.62;76.96;96738.56;4950920;28;20054;-68
2022/07/13 01:02:10;;;;;;;3.10;1.83;;;17.40;67.90;;;16.58;76.50;96742.69;4960021;28;20070;-68
2022/07/13 01:04:36;;;;;;;4.95;1.75;;;17.40;67.90;;;16.56;76.76;96750.06;4967527;28;20125;-66
2022/07/13 01:07:02;;;;;;;7.07;1.90;;;17.40;68.10;;;16.56;77.07;96734.13;4968116;28;20027;-66
2022/07/13 01:09:28;;;;;;;3.55;1.60;;;17.40;68.20;;;16.53;77.24;96745.97;4946755;28;20038;-68
2022/07/13 01:11:54;;;;;;;3.55;1.55;;;17.40;68.10;;;16.51;76.79;96740.84;4964746;28;20533;-66
2022/07/13 01:14:20;;;;;;;8.57;1.92;;;17.40;67.90;;;16.48;77.22;96745.78;4966142;28;20070;-66
2022/07/13 01:16:45;;;;;;;3.20;1.50;;;17.20;67.90;;;16.42;77.62;96742.13;4967150;28;20184;-67
2022/07/13 01:19:12;;;;;;;2.60;1.50;;;17.20;68.10;;;16.39;76.92;96747.84;4949233;28;20066;-66
2022/07/13 01:21:41;;;;;;;2.55;1.55;;;17.10;68.20;;;16.36;77.67;96740.31;4958754;28;20070;-67
2022/07/13 01:24:07;;;;;;;2.88;1.55;;;17.20;68.10;;;16.34;77.32;96741.56;4964567;28;20031;-66
2022/07/13 01:26:33;;;;;;;2.10;1.50;;;17.10;68.30;;;16.27;76.87;96736.25;4964523;28;20054;-66
2022/07/13 01:28:59;;;;;;;4.70;1.60;;;17.10;68.40;;;16.28;77.33;96743.19;4967126;28;20520;-66
2022/07/13 01:31:38;;;;;;;2.13;1.60;;;17.10;68.60;;;16.27;79.29;96746.84;4970099;28;20043;-65
2022/07/13 01:34:05;;;;;;;2.83;1.67;;;17.10;68.50;;;16.24;78.33;96741.97;4968179;28;20061;-68
2022/07/13 01:36:30;;;;;;;2.65;1.48;;;17.10;68.50;;;16.21;77.59;96747.69;4969555;28;20049;-68
2022/07/13 01:38:56;;;;;;;2.38;1.30;;;17.00;68.50;;;16.18;78.19;96748.13;4951400;28;20113;-68
2022/07/13 01:41:22;;;;;;;3.15;1.70;;;17.00;68.60;;;16.15;78.57;96748.53;4966644;28;20057;-68
2022/07/13 01:43:49;;;;;;;3.15;1.20;;;17.00;68.90;;;16.12;78.50;96757.75;4948789;28;20071;-68
2022/07/13 01:46:15;;;;;;;2.40;1.40;;;16.90;69.20;;;16.11;79.30;96747.31;4968887;28;20070;-68
2022/07/13 01:48:41;;;;;;;2.10;1.30;;;17.00;69.20;;;16.08;79.25;96747.75;4967700;28;20454;-68
2022/07/13 01:51:06;;;;;;;3.05;1.27;;;16.90;69.40;;;16.05;79.37;96738.34;4965656;28;20070;-68
2022/07/13 01:53:32;;;;;;;2.58;1.38;;;16.90;69.40;;;16.05;79.01;96742.81;4963843;28;20122;-68
2022/07/13 01:55:58;;;;;;;1.70;1.30;;;16.90;69.60;;;16.04;79.57;96747.31;4963103;28;20117;-66
2022/07/13 01:58:24;;;;;;;5.05;1.50;;;16.90;69.50;;;16.04;80.23;96747.31;4959622;28;20439;-66
2022/07/13 02:00:50;;;;;;;3.38;1.73;;;16.90;69.60;;;16.04;79.54;96749.16;4962596;28;20495;-67
2022/07/13 02:03:15;;;;;;;1.67;1.30;;;16.90;69.70;;;16.03;80.13;96745.69;4959952;28;20192;-66
2022/07/13 02:05:42;;;;;;;2.67;1.40;;;16.80;69.70;;;15.99;79.98;96738.34;4958967;28;20031;-66
2022/07/13 02:08:07;;;;;;;2.17;1.30;;;16.80;70.00;;;15.96;79.89;96734.28;4967319;28;20133;-67
2022/07/13 02:10:36;;;;;;;3.22;1.70;;;16.80;70.10;;;15.94;80.97;96728.38;4957530;28;20035;-67
2022/07/13 02:13:07;;;;;;;5.10;1.58;;;16.80;70.20;;;15.89;81.19;96731.66;4962768;28;20046;-67
2022/07/13 02:15:33;;;;;;;4.10;1.30;;;16.80;70.40;;;15.85;80.75;96733.09;4965911;28;20051;-67
2022/07/13 02:17:59;;;;;;;2.58;1.60;;;16.70;70.60;;;15.82;81.82;96741.44;4968645;28;20058;-67
2022/07/13 02:20:25;;;;;;;2.25;1.35;;;16.60;70.80;;;15.80;81.21;96734.72;4966187;28;20066;-67
2022/07/13 02:22:50;;;;;;;5.40;1.70;;;16.60;70.90;;;15.75;81.32;96742.47;4965750;28;20575;-67
2022/07/13 02:25:16;;;;;;;2.30;1.50;;;16.60;71.10;;;15.71;81.38;96741.25;4966006;28;20525;-66
2022/07/13 02:27:42;;;;;;;4.38;1.55;;;16.50;71.40;;;15.67;82.41;96740.84;4962991;28;20041;-67
2022/07/13 02:30:12;;;;;;;2.17;1.33;;;16.60;71.60;;;15.67;82.62;96732.91;4964506;28;20078;-67
2022/07/13 02:32:38;;;;;;;4.15;1.63;;;16.60;71.60;;;15.70;82.17;96739.63;4964685;28;20045;-67
2022/07/13 02:35:05;;;;;;;1.77;1.48;;;16.60;71.60;;;15.67;82.55;96735.56;4962988;28;20039;-67
2022/07/13 02:37:30;;;;;;;4.70;1.50;;;16.50;71.60;;;15.65;83.13;96740.25;4963530;28;20038;-67
2022/07/13 02:39:56;;;;;;;2.45;1.40;;;16.50;71.50;;;15.57;83.04;96740.41;4961069;28;20042;-68
2022/07/13 02:42:25;;;;;;;3.00;1.45;;;16.40;72.00;;;15.49;84.12;96735.31;4961896;28;20043;-68
2022/07/13 02:44:52;;;;;;;3.42;1.30;;;16.20;72.60;;;15.43;83.16;96739.59;4968509;28;20042;-68
2022/07/13 02:47:18;;;;;;;4.18;1.40;;;16.30;72.60;;;15.42;83.54;96737.16;4947461;28;20093;-66
2022/07/13 02:49:44;;;;;;;3.97;1.60;;;16.20;72.60;;;15.39;84.01;96729.59;4977287;28;20503;-67
2022/07/13 02:52:09;;;;;;;2.72;1.60;;;16.30;72.70;;;15.39;83.89;96740.19;4967368;28;20444;-67
2022/07/13 02:54:35;;;;;;;1.75;1.35;;;16.30;72.50;;;15.39;85.17;96737.53;4964903;28;21158;-67
2022/07/13 02:57:01;;;;;;;2.70;1.30;;;16.40;72.20;;;15.36;84.70;96741.41;4965569;28;20057;-67
2022/07/13 02:59:31;;;;;;;1.88;1.55;;;16.20;72.20;;;15.27;83.91;96732.84;4965403;28;20182;-66
2022/07/13 03:01:56;;;;;;;2.17;1.58;;;16.10;72.60;;;15.20;84.20;96729.41;4966503;28;20070;-67
2022/07/13 03:04:22;;;;;;;2.72;1.52;;;16.00;72.80;;;15.17;84.64;96732.44;4966372;28;20038;-67
2022/07/13 03:06:48;;;;;;;3.08;1.55;;;16.10;72.90;;;15.17;84.93;96731.63;4966606;28;20503;-67
2022/07/13 03:09:14;;;;;;;2.53;1.40;;;16.10;72.80;;;15.14;84.59;96738.13;4965003;28;20139;-67
2022/07/13 03:11:39;;;;;;;2.30;1.52;;;16.10;73.00;;;15.15;85.03;96737.09;4959078;28;20097;-67
2022/07/13 03:14:05;;;;;;;4.60;1.60;;;16.10;73.00;;;15.13;84.79;96739.16;4956915;28;20063;-67
2022/07/13 03:16:32;;;;;;;2.08;1.30;;;16.10;73.00;;;15.11;84.82;96735.88;4945668;28;20090;-67
2022/07/13 03:18:59;;;;;;;2.38;1.73;;;16.10;72.80;;;15.07;86.00;96733.84;4950341;28;20031;-66
2022/07/13 03:21:24;;;;;;;2.10;1.30;;;16.00;73.00;;;15.02;86.04;96734.47;4944427;28;20132;-67
2022/07/13 03:23:50;;;;;;;1.70;1.20;;;15.90;73.30;;;14.95;85.78;96733.63;4947569;28;20248;-68
2022/07/13 03:26:16;;;;;;;2.13;1.27;;;15.80;73.70;;;14.91;86.10;96735.03;4944698;28;20035;-67
2022/07/13 03:28:42;;;;;;;2.58;1.30;;;15.80;73.90;;;14.86;86.77;96732.16;4944126;28;20634;-67
2022/07/13 03:31:07;;;;;;;2.45;1.48;;;15.70;74.50;;;14.83;86.83;96737.88;4946309;28;20546;-66
2022/07/13 03:33:33;;;;;;;2.92;1.60;;;15.70;74.70;;;14.82;87.67;96742.34;4945720;28;20043;-67
2022/07/13 03:35:59;;;;;;;2.63;1.50;;;15.70;74.60;;;14.86;88.02;96742.75;4946630;28;20105;-66
2022/07/13 03:38:24;;;;;;;2.00;1.70;;;15.80;74.50;;;14.87;89.23;96739.09;4944602;28;20158;-67
2022/07/13 03:40:50;;;;;;;2.35;1.60;;;15.90;74.60;;;14.89;89.37;96739.72;4946671;28;20130;-67
2022/07/13 03:43:16;;;;;;;2.60;1.50;;;15.90;74.40;;;14.89;89.47;96740.53;4949226;28;20070;-65
2022/07/13 03:45:42;;;;;;;1.88;1.27;;;15.90;74.40;;;14.88;87.77;96741.53;4967542;28;20070;-69
2022/07/13 03:48:08;;;;;;;2.03;1.50;;;15.90;74.50;;;14.87;88.07;96736.44;4966044;28;20062;-67
2022/07/13 03:50:34;;;;;;;2.50;1.58;;;15.80;74.60;;;14.88;89.38;96746.03;4963369;28;20447;-69
2022/07/13 03:52:59;;;;;;;4.35;1.73;;;15.90;74.60;;;14.89;90.28;96743.19;4960361;28;20529;-67
2022/07/13 03:55:25;;;;;;;5.50;1.67;;;15.90;74.70;;;14.88;89.90;96746.84;4962785;28;20587;-68
2022/07/13 03:57:51;;;;;;;3.38;1.40;;;15.90;74.90;;;14.88;88.83;96736.25;4964121;28;20066;-67
2022/07/13 04:00:17;;;;;;;4.10;1.65;;;15.90;75.10;;;14.90;89.60;96736.03;4964263;28;20085;-67
2022/07/13 04:02:43;;;;;;;3.15;1.60;;;15.90;75.10;;;14.92;89.16;96732.19;4966247;28;20082;-67
2022/07/13 04:05:10;;;;;;;3.53;1.80;;;16.00;75.00;;;14.93;90.76;96733.00;4963056;28;20058;-68
2022/07/13 04:07:35;;;;;;;1.60;1.40;;;16.00;75.20;;;14.89;91.26;96734.41;4960659;28;20053;-68
2022/07/13 04:10:01;;;;;;;2.53;1.60;;;15.90;75.60;;;14.87;90.34;96733.81;4965346;28;20058;-67
2022/07/13 04:12:27;;;;;;;2.70;1.63;;;15.90;76.00;;;14.84;91.49;96731.56;4966385;28;20039;-67
2022/07/13 04:14:53;;;;;;;2.92;1.80;;;15.80;76.30;;;14.85;91.38;96727.88;4967499;28;20042;-67
2022/07/13 04:17:19;;;;;;;5.18;1.83;;;15.90;76.20;;;14.85;93.07;96730.53;4963358;28;20121;-67
2022/07/13 04:19:45;;;;;;;3.42;1.63;;;16.00;76.10;;;14.87;93.48;96728.50;4962897;28;20133;-68
2022/07/13 04:22:11;;;;;;;2.22;1.60;;;16.00;76.20;;;14.90;93.44;96728.09;4964787;28;20030;-68
2022/07/13 04:24:36;;;;;;;2.75;1.48;;;16.10;76.00;;;14.93;93.78;96731.16;4964091;28;20177;-67
2022/07/13 04:27:02;;;;;;;3.40;2.35;;;16.10;75.90;;;14.98;93.42;96720.00;4965639;28;20130;-67
2022/07/13 04:29:28;;;;;;;4.88;3.22;;;16.10;75.70;;;14.97;93.58;96724.47;4963699;28;20043;-67
2022/07/13 04:31:54;;;;;;;2.47;1.65;;;16.10;76.00;;;14.99;92.21;96721.63;4961252;28;20097;-66
2022/07/13 04:34:19;;;;;;;2.97;1.63;;;16.10;76.10;;;15.01;93.58;96714.28;4967462;28;20066;-66
2022/07/13 04:36:45;;;;;;;4.30;1.70;;;16.10;76.20;;;15.02;94.63;96710.63;4968482;28;20047;-66
2022/07/13 04:39:12;;;;;;;4.15;1.60;;;16.10;76.60;;;15.02;94.83;96721.22;4961818;28;20077;-66
2022/07/13 04:41:38;;;;;;;3.45;1.85;;;16.10;76.90;;;15.01;93.61;96711.63;4964175;28;20097;-67
2022/07/13 04:44:04;;;;;;;4.50;2.97;;;16.10;77.00;;;15.05;94.71;96714.69;4966597;28;20063;-66
2022/07/13 04:46:30;;;;;;;2.85;2.08;;;16.10;77.10;;;15.09;94.32;96727.31;4965499;28;20046;-66
2022/07/13 04:48:55;;;;;;;4.18;3.78;;;16.20;77.00;;;15.13;95.40;96725.91;4965506;28;20074;-66
2022/07/13 04:51:21;;;;;;;4.65;2.53;;;16.40;76.90;;;15.18;95.95;96720.84;4961542;28;20073;-66
2022/07/13 04:53:47;;;;;;;5.75;1.90;;;16.40;76.70;;;15.23;94.86;96718.38;4965999;28;20038;-66
2022/07/13 04:56:13;;;;;;;3.35;2.10;;;16.40;76.70;;;15.23;95.06;96717.56;4967347;28;20514;-66
2022/07/13 04:58:38;;;;;;;3.97;2.60;;;16.40;76.80;;;15.23;95.91;96718.38;4964285;28;20509;-66
2022/07/13 05:01:06;;;;;;;3.40;2.10;;;16.40;76.90;;;15.25;95.80;96715.53;4962515;28;20043;-68
2022/07/13 05:03:32;;;;;;;5.28;2.00;;;16.30;77.00;;;15.28;95.17;96705.34;4946902;28;21610;-66
2022/07/13 05:05:59;;;;;;;2.35;1.80;;;16.50;76.90;;;15.31;95.04;96709.41;4945801;28;20524;-66
2022/07/13 05:08:25;;;;;;;2.35;1.80;;;16.50;76.80;;;15.32;96.28;96711.84;4944534;28;20431;-66
2022/07/13 05:10:51;;;;;;;3.45;2.08;;;16.50;76.80;;;15.35;96.84;96710.63;4942369;28;20039;-66
2022/07/13 05:13:17;;;;;;;2.78;2.10;;;16.50;76.80;;;15.41;95.85;96706.38;4946626;28;20515;-67
2022/07/13 05:15:43;;;;;;;3.42;2.22;;;16.60;76.60;;;15.45;95.28;96715.53;4943542;28;20146;-65
2022/07/13 05:18:09;;;;;;;3.63;2.05;;;16.70;76.40;;;15.49;95.31;96716.75;4944190;28;20094;-66
2022/07/13 05:20:34;;;;;;;12.55;9.55;;;16.70;76.20;;;15.58;95.02;96720.81;4942948;28;20079;-66
2022/07/13 05:23:00;;;;;;;5.57;3.35;;;16.90;76.00;;;15.64;95.96;96717.41;4944280;28;20130;-66
2022/07/13 05:25:26;;;;;;;3.83;2.10;;;16.90;75.90;;;15.73;95.20;96720.66;4945437;28;20059;-62
2022/07/13 05:27:51;;;;;;;4.47;2.00;;;17.00;75.80;;;15.79;94.83;96723.28;4945694;28;20075;-63
2022/07/13 05:30:17;;;;;;;2.30;2.08;;;17.10;75.00;;;15.84;94.64;96723.50;4944076;28;20123;-68
2022/07/13 05:32:43;;;;;;;16.08;11.93;;;17.20;75.20;;;15.93;94.89;96724.09;4940514;28;20106;-69
2022/07/13 05:35:09;;;;;;;5.97;2.90;;;17.30;74.80;;;15.99;94.14;96722.44;4948239;28;20499;-67
2022/07/13 05:37:35;;;;;;;3.20;2.00;;;17.40;74.20;;;16.09;94.16;96721.00;4941808;28;20149;-67
2022/07/13 05:40:00;;;;;;;4.40;1.92;;;17.60;73.80;;;16.18;93.13;96716.28;4942114;28;20114;-66
2022/07/13 05:42:27;;;;;;;3.13;1.58;;;17.60;73.50;;;16.25;92.86;96711.75;4944729;28;20063;-66
2022/07/13 05:44:53;;;;;;;2.65;1.73;;;17.70;73.20;;;16.34;92.69;96701.72;4949305;28;20035;-67
2022/07/13 05:47:19;;;;;;;4.47;1.92;;;17.80;72.90;;;16.44;92.48;96700.22;4947514;28;20047;-63
2022/07/13 05:49:45;;;;;;;4.82;1.98;;;17.90;72.90;;;16.55;92.42;96704.09;4950429;28;20046;-63
2022/07/13 05:52:10;;;;;;;2.15;1.70;;;18.10;72.60;;;16.70;92.18;96704.63;4959000;28;20042;-63
2022/07/13 05:54:36;;;;;;;3.88;1.90;;;18.30;72.20;;;16.84;92.40;96689.44;4969045;28;20038;-63
2022/07/13 05:57:02;;;;;;;3.38;1.60;;;18.50;72.10;;;17.00;91.82;96688.94;4969147;28;20038;-63
2022/07/13 05:59:28;;;;;;;3.88;1.75;;;18.70;71.00;;;17.15;91.10;96681.47;4966816;28;20043;-63
2022/07/13 06:01:54;;;;;;;3.45;1.90;;;18.90;70.70;;;17.33;90.28;96682.56;4971430;28;20042;-63
2022/07/13 06:04:20;;;;;;;4.50;1.77;;;19.00;69.60;;;17.51;89.94;96679.16;4968641;28;20047;-63
2022/07/13 06:06:46;;;;;;;3.58;1.83;;;19.30;69.30;;;17.72;90.04;96679.59;4965900;28;20430;-63
2022/07/13 06:09:12;;;;;;;4.93;1.88;;;19.60;68.90;;;17.95;88.80;96683.47;4971431;28;20067;-63
2022/07/13 06:11:39;;;;;;;2.75;1.48;;;19.90;67.60;;;18.20;87.97;96683.38;4969881;28;20049;-64
2022/07/13 06:14:06;;;;;;;3.85;1.63;;;20.10;66.80;;;18.43;86.80;96680.03;4969872;28;20407;-63
2022/07/13 06:16:32;;;;;;;2.38;1.50;;;20.40;66.20;;;18.67;86.34;96684.47;4966058;28;20746;-64
2022/07/13 06:18:57;;;;;;;2.58;1.60;;;20.60;64.70;;;18.86;84.58;96667.38;4968305;28;20042;-64
2022/07/13 06:21:23;;;;;;;2.53;1.60;;;20.90;63.60;;;19.06;84.17;96666.28;4968620;28;20122;-63
2022/07/13 06:23:49;;;;;;;3.45;1.50;;;21.20;62.90;;;19.23;81.74;96681.38;4968397;28;20507;-63
2022/07/13 06:26:15;;;;;;;2.33;1.52;;;21.40;61.10;;;19.41;82.13;96675.16;4965955;28;20506;-63
2022/07/13 06:28:41;;;;;;;5.13;1.55;;;21.60;61.30;;;19.60;81.24;96673.22;4968516;28;20284;-63
2022/07/13 06:31:07;;;;;;;2.90;1.50;;;21.90;60.60;;;19.79;80.69;96665.91;4970100;28;20446;-67
2022/07/13 06:33:33;;;;;;;2.53;1.40;;;22.10;60.40;;;19.98;79.38;96663.94;4967322;28;20066;-66
2022/07/13 06:35:59;;;;;;;3.25;1.35;;;22.40;59.60;;;20.19;79.84;96661.47;4968330;28;20066;-67
2022/07/13 06:38:24;;;;;;;2.22;1.40;;;22.70;59.00;;;20.41;78.96;96647.50;4970143;28;20031;-66
2022/07/13 06:40:50;;;;;;;5.07;1.70;;;23.00;58.60;;;20.63;77.68;96661.81;4970250;28;20460;-67
2022/07/13 06:43:16;;;;;;;3.25;1.25;;;23.20;57.60;;;20.84;76.66;96656.84;4972049;28;20037;-66
2022/07/13 06:45:42;;;;;;;2.80;1.48;;;23.50;56.30;;;21.07;75.98;96667.44;4963815;28;20384;-64
2022/07/13 06:48:07;;;;;;;3.50;1.40;;;23.70;56.60;;;21.29;75.80;96663.03;4948539;28;20035;-66
2022/07/13 06:50:33;;;;;;;3.05;1.30;;;24.10;56.00;;;21.53;75.26;96665.53;4951169;28;20105;-65
2022/07/13 06:52:59;;;;;;;2.65;1.30;;;24.40;55.10;;;21.77;73.92;96669.66;4949653;28;20130;-63
2022/07/13 06:55:25;;;;;;;1.80;1.20;;;24.60;54.00;;;21.97;72.72;96669.94;4946327;28;20131;-65
2022/07/13 06:57:51;;;;;;;4.13;1.40;;;24.70;53.10;;;22.15;72.46;96673.41;4954074;28;20565;-63
2022/07/13 07:00:17;;;;;;;2.35;1.52;;;25.00;53.10;;;22.39;71.76;96684.69;4968618;28;20077;-63
2022/07/13 07:02:42;;;;;;;4.97;1.55;;;25.30;52.50;;;22.60;70.29;96675.81;4969343;28;20129;-65
2022/07/13 07:05:11;;;;;;;2.22;1.13;;;25.60;51.00;;;22.82;70.52;96679.31;4969604;28;20035;-63
2022/07/13 07:07:38;;;;;;;3.75;1.17;;;25.90;50.60;;;23.08;69.72;96685.75;4983010;28;20047;-63
2022/07/13 07:10:04;;;;;;;3.72;1.30;;;26.20;50.80;;;23.36;69.25;96681.19;4968788;28;20043;-63
2022/07/13 07:12:30;;;;;;;2.38;1.08;;;26.50;48.40;;;23.64;67.88;96678.22;4967632;28;20050;-63
2022/07/13 07:14:56;;;;;;;5.68;1.40;;;26.90;47.90;;;23.87;66.15;96685.09;4964470;28;20100;-67
2022/07/13 07:17:21;;;;;;;2.38;1.27;;;27.00;46.30;;;24.11;65.50;96682.81;4967932;28;20387;-67
2022/07/13 07:19:47;;;;;;;2.15;1.15;;;27.30;46.60;;;24.41;64.68;96680.31;4968331;28;20070;-66
2022/07/13 07:22:13;;;;;;;4.75;1.08;;;27.70;46.00;;;24.74;64.13;96667.53;4970013;28;20043;-63
2022/07/13 07:24:40;;;;;;;6.78;2.10;;;28.00;45.00;;;25.06;63.17;96674.59;4963744;28;20035;-66
2022/07/13 07:27:07;;;;;;;4.53;1.40;;;28.20;44.70;;;25.35;61.25;96670.34;4969964;28;20023;-63
2022/07/13 07:29:34;;;;;;;3.55;1.20;;;28.50;43.40;;;25.62;60.25;96668.19;4965864;28;20111;-64
2022/07/13 07:32:01;;;;;;;3.28;0.90;;;28.60;43.50;;;25.85;59.09;96660.63;4963189;28;20035;-66
2022/07/13 07:34:30;;;;;;;2.58;0.85;;;28.90;42.00;;;26.07;55.12;96657.63;4966840;28;20118;-67
2022/07/13 07:36:56;;;;;;;1.35;0.80;;;29.00;40.60;;;26.29;56.42;96660.00;4962596;28;20514;-62
2022/07/13 07:39:22;;;;;;;2.97;0.70;;;29.40;39.90;;;26.61;55.40;96657.72;4970405;28;20189;-62
2022/07/13 07:41:49;;;;;;;3.05;0.85;;;29.70;39.60;;;26.91;54.90;96650.53;4971080;28;20027;-62
2022/07/13 07:44:14;;;;;;;3.42;0.73;;;29.90;39.00;;;27.20;53.38;96653.34;4971116;28;20035;-62
2022/07/13 07:46:41;;;;;;;4.55;0.77;;;30.30;38.40;;;27.57;52.42;96658.16;4970166;28;20034;-63
2022/07/13 07:49:06;;;;;;;1.50;0.60;;;30.70;37.90;;;27.85;51.33;96643.91;4970774;28;20031;-62
2022/07/13 07:51:32;;;;;;;2.80;0.85;;;30.90;35.90;;;28.17;49.15;96650.59;4954661;28;20035;-63
2022/07/13 07:53:58;;;;;;;1.15;0.68;;;31.30;34.70;;;28.46;48.90;96643.22;4971127;28;20041;-62
2022/07/13 07:56:24;;;;;;;1.65;0.85;;;31.50;35.20;;;28.75;47.51;96642.31;4967500;28;20062;-62
2022/07/13 07:58:50;;;;;;;2.05;0.60;;;31.70;34.30;;;28.98;46.74;96638.78;4967669;28;20035;-61
2022/07/13 08:01:16;;;;;;;2.90;0.60;;;31.60;34.60;;;29.20;45.59;96636.25;4970860;28;20115;-62
2022/07/13 08:03:42;;;;;;;0.95;0.55;;;31.70;33.70;;;29.30;44.19;96634.47;4970223;28;20158;-62
2022/07/13 08:06:08;;;;;;;0.82;0.68;;;31.60;33.30;;;29.34;43.70;96640.91;4961802;28;20122;-65
2022/07/13 08:08:33;;;;;;;3.60;0.50;;;31.60;33.10;;;29.40;42.51;96642.44;4970217;28;20062;-63
2022/07/13 08:11:01;;;;;;;0.68;0.43;;;31.90;31.70;;;29.46;41.75;96641.31;4970853;28;20058;-62
2022/07/13 08:13:27;;;;;;;1.48;0.60;;;31.80;32.00;;;29.53;41.10;96644.44;4970237;28;20042;-62
2022/07/13 08:15:53;;;;;;;2.35;0.50;;;32.00;30.70;;;29.63;39.87;96641.53;4969975;28;20055;-63
2022/07/13 08:18:18;;;;;;;1.50;0.57;;;32.30;29.10;;;29.70;39.88;96639.25;4968720;28;20110;-61
2022/07/13 08:20:44;;;;;;;0.95;0.40;;;32.20;30.80;;;29.67;39.79;96639.84;4962056;28;20075;-63
2022/07/13 08:25:55;;;;;;;2.15;0.50;;;31.80;31.30;;;29.53;39.35;96636.28;4965071;28;20071;-60
2022/07/13 08:28:20;;;;;;;0.75;0.40;;;32.10;30.70;;;29.69;39.25;96642.28;4965995;28;20030;-60
2022/07/13 08:30:47;;;;;;;2.17;0.40;;;32.40;30.80;;;29.81;37.81;96635.25;4967227;28;20098;-61
2022/07/13 08:33:13;;;;;;;1.13;0.35;;;32.50;27.90;;;29.85;36.97;96636.25;4965883;28;20121;-60
2022/07/13 08:38:35;;;;;;;1.73;0.50;;;32.60;28.40;;;30.09;37.75;96636.09;4966401;28;20054;-61
2022/07/13 08:41:01;;;;;;;0.82;0.60;;;33.00;30.60;;;30.28;37.35;96627.06;4966611;28;20046;-60
2022/07/13 08:43:27;;;;;;;1.77;0.60;;;33.20;29.60;;;30.42;36.86;96620.53;4962395;28;20172;-60
2022/07/13 08:45:54;;;;;;;0.95;0.47;;;33.40;29.00;;;30.58;37.33;96622.94;4966998;28;20023;-61
2022/07/13 08:48:29;;;;;;;2.08;0.60;;;33.40;29.60;;;30.70;34.87;96628.66;4967603;28;20047;-63
2022/07/13 08:50:54;;;;;;;1.25;0.50;;;33.50;28.60;;;30.75;36.51;96626.63;4966009;28;20063;-62
2022/07/13 08:53:20;;;;;;;1.55;0.60;;;33.50;28.80;;;30.80;35.15;96631.16;4967819;28;20586;-63
2022/07/13 08:55:46;;;;;;;5.25;0.93;;;33.50;26.70;;;30.89;35.44;96629.31;4965892;28;20406;-63
2022/07/13 08:58:12;;;;;;;1.35;0.40;;;33.60;27.60;;;31.00;35.19;96619.00;4966461;28;20073;-62
2022/07/13 09:00:37;;;;;;;0.65;0.50;;;33.80;27.80;;;31.13;34.85;96630.97;4945953;28;20129;-63
2022/07/13 09:03:03;;;;;;;1.38;0.50;;;34.00;26.60;;;31.23;34.65;96625.28;4962597;28;20117;-63
2022/07/13 09:05:29;;;;;;;1.80;0.40;;;34.00;26.20;;;31.28;33.74;96617.03;4947589;28;20169;-62
2022/07/13 09:08:06;;;;;;;2.80;0.57;;;33.90;26.30;;;31.35;31.99;96623.66;4961435;28;20062;-68
2022/07/13 09:10:33;;;;;;;3.15;0.68;;;34.10;27.00;;;31.42;34.51;96627.84;4966000;28;20027;-66
2022/07/13 09:12:58;;;;;;;1.35;0.47;;;34.10;27.70;;;31.53;33.52;96629.19;4932747;28;20066;-64
2022/07/13 09:15:24;;;;;;;0.90;0.40;;;34.10;27.20;;;31.53;33.93;96627.28;4965864;28;20579;-60
2022/07/13 09:17:50;;;;;;;1.33;0.40;;;34.30;27.80;;;31.67;34.01;96625.28;4965877;28;20882;-63
2022/07/13 09:20:19;;;;;;;0.47;0.30;;;34.60;27.10;;;31.83;32.88;96624.91;4970414;28;20035;-61
2022/07/13 09:22:54;;;;;;;2.10;0.50;;;34.80;26.70;;;32.02;32.42;96630.13;4965134;28;20070;-61
2022/07/13 09:25:39;;;;;;;4.90;0.60;;;35.00;26.40;;;32.01;32.56;96623.88;4969887;28;20353;-62
2022/07/13 09:28:08;;;;;;;4.45;0.60;;;34.70;26.80;;;31.99;32.18;96632.38;4969852;28;20106;-61
2022/07/13 09:30:36;;;;;;;1.88;0.60;;;34.60;26.70;;;32.11;32.87;96628.22;4969624;28;20069;-62
2022/07/13 09:33:02;;;;;;;3.58;0.63;;;34.80;28.10;;;32.25;34.06;96624.28;4984489;28;20114;-61
2022/07/13 09:35:51;;;;;;;0.82;0.43;;;35.20;27.80;;;32.45;32.56;96627.59;4968506;28;20038;-61
2022/07/13 09:38:41;;;;;;;1.85;0.52;;;35.30;26.90;;;32.60;30.33;96616.25;4967097;28;20057;-61
2022/07/13 09:41:19;;;;;;;3.15;0.70;;;35.40;24.70;;;32.76;30.43;96616.56;4970166;28;20058;-61
2022/07/13 09:47:06;;;;;;;2.38;0.47;;;36.10;25.90;;;32.99;31.82;96601.72;4969693;28;20085;-60
2022/07/13 09:49:42;;;;;;;2.60;0.80;;;35.80;26.60;;;32.87;31.59;96602.38;4968634;28;20047;-61
2022/07/13 09:52:18;;;;;;;3.80;0.40;;;35.40;25.60;;;32.77;28.69;96601.84;4967637;28;20066;-60
2022/07/13 09:54:51;;;;;;;0.70;0.50;;;35.20;23.90;;;32.69;29.66;96603.44;4967895;28;20039;-61
2022/07/13 09:57:17;;;;;;;1.63;0.50;;;35.10;23.70;;;32.66;28.85;96601.34;4970890;28;20093;-61
2022/07/13 09:59:44;;;;;;;0.60;0.40;;;35.00;22.60;;;32.62;28.46;96602.31;4968004;28;20042;-61
2022/07/13 10:02:10;;;;;;;0.70;0.40;;;35.00;22.00;;;32.59;28.98;96609.19;4970691;28;20031;-60
2022/07/13 10:04:36;;;;;;;4.50;0.60;;;35.10;23.60;;;32.65;29.68;96616.09;4968157;28;20034;-61
2022/07/13 10:07:05;;;;;;;1.92;0.30;;;35.20;24.50;;;32.76;26.73;96606.47;4969871;28;20072;-61
2022/07/13 10:09:31;;;;;;;0.50;0.50;;;35.60;20.60;;;33.00;27.62;96611.50;4967745;28;20517;-61
2022/07/13 10:11:57;;;;;;;0.50;0.40;;;36.50;20.90;;;33.40;27.17;96601.22;4969908;28;20038;-61
2022/07/13 10:14:24;;;;;;;1.85;0.40;;;37.10;20.70;;;33.80;27.69;96607.25;4968343;28;20562;-61
2022/07/13 10:16:52;;;;;;;1.25;0.50;;;37.30;21.30;;;34.07;27.72;96595.13;4968425;28;20043;-61
2022/07/13 10:19:18;;;;;;;2.22;0.60;;;37.30;21.60;;;34.15;27.37;96600.84;4969198;28;20126;-61
2022/07/13 10:22:09;;;;;;;1.77;0.50;;;37.10;22.00;;;34.17;26.36;96598.59;4962211;28;20122;-61
2022/07/13 10:24:35;;;;;;;2.42;0.60;;;37.00;22.60;;;34.16;27.40;96603.25;4964968;28;20406;-61
2022/07/13 10:27:26;;;;;;;0.93;0.50;;;37.00;22.20;;;34.25;27.19;96605.97;4951741;28;20090;-61